Time;durP1;ratioP1;P1;durP2;ratioP2;P2;SDS_P1;SDS_P2;PMS_P1;PMS_P2;Temp;Humidity;BMP_temperature;BMP_pressure;BME280_temperature;BME280_humidity;BME280_pressure;Samples;Min_cycle;Max_cycle;Signal;HPM_P1;HPM_P2
2021/07/29 00:00:55;;;;;;;6.00;4.60;;;15.80;99.90;;;;;;4996516;28;20455;-57
2021/07/29 00:03:20;;;;;;;8.60;4.70;;;15.80;99.90;;;;;;5007753;28;21222;-58
2021/07/29 00:05:47;;;;;;;6.00;4.80;;;15.80;99.90;;;;;;5007798;28;20204;-57
2021/07/29 00:08:13;;;;;;;12.50;5.33;;;15.70;99.90;;;;;;5007740;28;20173;-57
2021/07/29 00:10:38;;;;;;;8.10;4.53;;;15.70;99.90;;;;;;4993887;28;20448;-57
2021/07/29 00:13:04;;;;;;;6.47;4.97;;;15.70;99.90;;;;;;5008407;28;20247;-58
2021/07/29 00:15:30;;;;;;;6.27;4.17;;;15.70;99.90;;;;;;5008502;28;20176;-55
2021/07/29 00:20:23;;;;;;;8.20;4.23;;;15.60;99.90;;;;;;5007808;28;20699;-57
2021/07/29 00:22:53;;;;;;;7.60;4.77;;;15.60;99.90;;;;;;5002542;28;20215;-57
2021/07/29 00:25:23;;;;;;;5.13;3.83;;;15.60;99.90;;;;;;5006628;28;20454;-57
2021/07/29 00:27:50;;;;;;;6.97;4.37;;;15.60;99.90;;;;;;5007836;28;21157;-57
2021/07/29 00:30:17;;;;;;;8.23;5.00;;;15.60;99.90;;;;;;5006604;28;20432;-58
2021/07/29 00:32:44;;;;;;;4.90;4.20;;;15.50;99.90;;;;;;5007249;28;20462;-57
2021/07/29 00:35:15;;;;;;;9.30;4.97;;;15.50;99.90;;;;;;5008096;28;20919;-58
2021/07/29 00:37:48;;;;;;;6.90;4.83;;;15.40;99.90;;;;;;5026197;28;20441;-57
2021/07/29 00:40:14;;;;;;;9.50;4.53;;;15.40;99.90;;;;;;5006605;28;20435;-58
2021/07/29 00:42:40;;;;;;;10.10;5.80;;;15.40;99.90;;;;;;5004891;28;20467;-58
2021/07/29 00:45:06;;;;;;;8.83;4.60;;;15.40;99.90;;;;;;5007664;28;20970;-57
2021/07/29 00:47:33;;;;;;;6.90;4.80;;;15.40;99.90;;;;;;5024253;28;20172;-58
2021/07/29 00:49:58;;;;;;;6.20;4.83;;;15.40;99.90;;;;;;5008745;28;20431;-57
2021/07/29 00:52:24;;;;;;;7.40;4.50;;;15.40;99.90;;;;;;5007129;28;20938;-58
2021/07/29 00:54:51;;;;;;;6.63;5.00;;;15.40;99.90;;;;;;5027798;28;20176;-57
2021/07/29 00:57:18;;;;;;;9.53;4.33;;;15.30;99.90;;;;;;5028737;28;20195;-56
2021/07/29 00:59:43;;;;;;;11.90;4.40;;;15.30;99.90;;;;;;5022363;28;20435;-58
2021/07/29 01:02:09;;;;;;;11.93;4.37;;;15.30;99.90;;;;;;5004581;28;20467;-56
2021/07/29 01:04:35;;;;;;;5.03;4.00;;;15.30;99.90;;;;;;5008187;28;20222;-57
2021/07/29 01:07:02;;;;;;;8.40;4.70;;;15.20;99.90;;;;;;5007977;28;20491;-56
2021/07/29 01:09:29;;;;;;;9.17;4.50;;;15.20;99.90;;;;;;5006964;28;20646;-57
2021/07/29 01:11:55;;;;;;;9.80;4.60;;;15.20;99.90;;;;;;5005659;28;21122;-56
2021/07/29 01:14:21;;;;;;;7.10;5.07;;;15.10;99.90;;;;;;5011510;28;20419;-57
2021/07/29 01:16:46;;;;;;;8.77;4.90;;;15.10;99.90;;;;;;4994905;28;20662;-56
2021/07/29 01:19:12;;;;;;;12.13;5.20;;;15.00;99.90;;;;;;5011542;28;20235;-57
2021/07/29 01:21:38;;;;;;;7.30;4.60;;;15.00;99.90;;;;;;5010346;28;20327;-57
2021/07/29 01:24:05;;;;;;;8.73;4.80;;;15.00;99.90;;;;;;4993616;28;20463;-57
2021/07/29 01:26:31;;;;;;;6.97;5.13;;;15.00;99.90;;;;;;5012070;28;20411;-57
2021/07/29 01:28:57;;;;;;;6.40;4.80;;;14.90;99.90;;;;;;4995247;28;21023;-58
2021/07/29 01:31:23;;;;;;;9.47;4.70;;;14.90;99.90;;;;;;5010882;28;20466;-58
2021/07/29 01:33:50;;;;;;;5.00;4.50;;;14.90;99.90;;;;;;5004768;28;20435;-57
2021/07/29 01:36:16;;;;;;;5.60;4.50;;;14.80;99.90;;;;;;5010790;28;20447;-57
2021/07/29 01:38:42;;;;;;;8.30;5.20;;;14.80;99.90;;;;;;5010798;28;20943;-57
2021/07/29 01:41:08;;;;;;;10.23;5.30;;;14.80;99.90;;;;;;4990942;28;20669;-56
2021/07/29 01:43:34;;;;;;;7.37;4.93;;;14.80;99.90;;;;;;5009368;28;20255;-55
2021/07/29 01:46:00;;;;;;;7.47;5.13;;;14.80;99.90;;;;;;5013707;28;20228;-57
2021/07/29 01:48:26;;;;;;;5.60;4.23;;;14.70;99.90;;;;;;5011304;28;20403;-56
2021/07/29 01:50:53;;;;;;;5.83;4.40;;;14.70;99.90;;;;;;5010743;28;20482;-57
2021/07/29 01:53:18;;;;;;;6.67;4.40;;;14.70;99.90;;;;;;5009335;28;20428;-57
2021/07/29 01:55:45;;;;;;;6.83;4.80;;;14.60;99.90;;;;;;5011183;28;20923;-57
2021/07/29 01:58:11;;;;;;;9.70;4.73;;;14.60;99.90;;;;;;5014209;28;20268;-57
2021/07/29 02:00:38;;;;;;;7.07;4.43;;;14.50;99.90;;;;;;5010567;28;20419;-56
2021/07/29 02:03:04;;;;;;;7.60;4.80;;;14.50;99.90;;;;;;5009751;28;20879;-57
2021/07/29 02:05:31;;;;;;;6.40;4.90;;;14.40;99.90;;;;;;5010743;28;20506;-57
2021/07/29 02:07:57;;;;;;;6.30;4.70;;;14.40;99.90;;;;;;5010196;28;20239;-57
2021/07/29 02:10:22;;;;;;;7.33;4.97;;;14.40;99.90;;;;;;5009628;28;20960;-57
2021/07/29 02:12:49;;;;;;;5.60;3.90;;;14.30;99.90;;;;;;5009939;28;20439;-57
2021/07/29 02:15:15;;;;;;;7.60;3.97;;;14.30;99.90;;;;;;5010953;28;20211;-57
2021/07/29 02:17:41;;;;;;;8.07;4.33;;;14.30;99.90;;;;;;5011247;28;20467;-57
2021/07/29 02:20:07;;;;;;;4.63;4.10;;;14.20;99.90;;;;;;4989105;28;20181;-57
2021/07/29 02:22:33;;;;;;;6.10;4.27;;;14.20;99.90;;;;;;5008645;28;20196;-57
2021/07/29 02:24:59;;;;;;;6.37;3.93;;;14.10;99.90;;;;;;5006737;28;20458;-57
2021/07/29 02:27:24;;;;;;;6.80;4.90;;;14.20;99.90;;;;;;5010512;28;20188;-57
2021/07/29 02:29:54;;;;;;;9.00;4.30;;;14.20;99.90;;;;;;5009739;28;20184;-57
2021/07/29 02:32:20;;;;;;;12.73;4.77;;;14.20;99.90;;;;;;5025430;23;20228;-59
2021/07/29 02:34:46;;;;;;;5.73;4.30;;;14.30;99.90;;;;;;5010491;28;20423;-58
2021/07/29 02:37:12;;;;;;;8.33;5.47;;;14.30;99.90;;;;;;5007392;28;21179;-59
2021/07/29 02:39:41;;;;;;;6.07;4.80;;;14.30;99.90;;;;;;5008847;28;20443;-59
2021/07/29 02:42:09;;;;;;;5.80;3.80;;;14.30;99.90;;;;;;5004152;28;20246;-59
2021/07/29 02:44:35;;;;;;;6.80;4.10;;;14.30;99.90;;;;;;4998301;28;20746;-58
2021/07/29 02:47:01;;;;;;;7.50;4.67;;;14.30;99.90;;;;;;4994057;28;20444;-58
2021/07/29 02:49:27;;;;;;;9.30;5.40;;;14.30;99.90;;;;;;4996050;28;20185;-58
2021/07/29 02:51:52;;;;;;;11.10;5.03;;;14.40;99.90;;;;;;4987276;28;20444;-59
2021/07/29 02:54:18;;;;;;;8.03;5.00;;;14.40;99.90;;;;;;4978765;28;20588;-58
2021/07/29 02:56:44;;;;;;;8.43;5.07;;;14.30;99.90;;;;;;4989888;28;20228;-58
2021/07/29 02:59:10;;;;;;;11.37;5.50;;;14.30;99.90;;;;;;4989504;28;20549;-59
2021/07/29 03:01:35;;;;;;;10.13;5.40;;;14.30;99.90;;;;;;4980921;28;20209;-59
2021/07/29 03:04:01;;;;;;;8.60;5.73;;;14.30;99.90;;;;;;4977460;28;20283;-59
2021/07/29 03:06:27;;;;;;;10.20;5.90;;;14.30;99.90;;;;;;5002032;28;20188;-59
2021/07/29 03:08:53;;;;;;;13.77;6.30;;;14.30;99.90;;;;;;4991565;28;20189;-58
2021/07/29 03:11:19;;;;;;;16.00;6.87;;;14.30;99.90;;;;;;4990329;28;20180;-58
2021/07/29 03:13:44;;;;;;;10.03;5.97;;;14.20;99.90;;;;;;4989264;28;20425;-58
2021/07/29 03:16:10;;;;;;;9.70;6.80;;;14.20;99.90;;;;;;4990556;28;20542;-59
2021/07/29 03:18:36;;;;;;;14.00;7.23;;;14.10;99.90;;;;;;4988622;28;20261;-59
2021/07/29 03:21:01;;;;;;;12.40;6.93;;;14.10;99.90;;;;;;4977022;28;20170;-58
2021/07/29 03:23:27;;;;;;;14.07;7.60;;;14.10;99.90;;;;;;5006494;28;20219;-58
2021/07/29 03:25:54;;;;;;;16.53;7.30;;;14.10;99.90;;;;;;5008870;28;20203;-58
2021/07/29 03:28:20;;;;;;;9.60;6.90;;;14.10;99.90;;;;;;5010183;28;20167;-59
2021/07/29 03:30:46;;;;;;;21.17;6.80;;;14.10;99.90;;;;;;4997559;28;20443;-58
2021/07/29 03:33:12;;;;;;;16.00;7.80;;;14.10;99.90;;;;;;4997135;28;20451;-58
2021/07/29 03:35:39;;;;;;;12.43;8.00;;;14.10;99.90;;;;;;5000737;28;20463;-58
2021/07/29 03:38:05;;;;;;;16.10;7.47;;;14.10;99.90;;;;;;4983756;28;20652;-58
2021/07/29 03:40:32;;;;;;;11.97;7.30;;;14.10;99.90;;;;;;5003273;28;20436;-59
2021/07/29 03:43:01;;;;;;;18.43;7.37;;;14.00;99.90;;;;;;5001360;28;20507;-58
2021/07/29 03:45:30;;;;;;;12.13;6.70;;;14.00;99.90;;;;;;5008254;28;20957;-59
2021/07/29 03:47:57;;;;;;;14.03;7.70;;;14.00;99.90;;;;;;4989938;28;20459;-58
2021/07/29 03:50:23;;;;;;;17.80;8.07;;;14.00;99.90;;;;;;4993453;28;20443;-59
2021/07/29 03:52:49;;;;;;;16.37;7.30;;;14.00;99.90;;;;;;4998279;28;20463;-59
2021/07/29 03:55:14;;;;;;;8.97;6.40;;;14.00;99.90;;;;;;4991027;28;20538;-59
2021/07/29 03:57:40;;;;;;;8.20;5.60;;;14.00;99.90;;;;;;4987435;28;20957;-58
2021/07/29 04:00:06;;;;;;;9.20;6.40;;;14.00;99.90;;;;;;4984189;28;20426;-57
2021/07/29 04:02:33;;;;;;;9.83;6.17;;;14.00;99.90;;;;;;4979213;28;20989;-59
2021/07/29 04:05:01;;;;;;;9.53;5.93;;;14.10;99.90;;;;;;4980548;28;21122;-56
2021/07/29 04:07:27;;;;;;;7.53;5.63;;;14.10;99.90;;;;;;4975572;28;20432;-58
2021/07/29 04:09:52;;;;;;;9.63;5.87;;;14.20;99.90;;;;;;4976395;28;21114;-58
2021/07/29 04:12:18;;;;;;;9.70;6.53;;;14.20;99.90;;;;;;4982595;28;20209;-57
2021/07/29 04:14:44;;;;;;;7.23;5.37;;;14.20;99.90;;;;;;4986137;28;20703;-57
2021/07/29 04:17:11;;;;;;;8.73;5.80;;;14.30;99.90;;;;;;4987311;28;20448;-60
2021/07/29 04:19:37;;;;;;;8.77;5.80;;;14.30;99.90;;;;;;4986157;28;20189;-58
2021/07/29 04:22:07;;;;;;;16.30;6.20;;;14.30;99.90;;;;;;4978828;28;20845;-61
2021/07/29 04:24:33;;;;;;;8.10;5.57;;;14.30;99.90;;;;;;4983044;28;20300;-62
2021/07/29 04:26:59;;;;;;;6.70;5.20;;;14.40;99.90;;;;;;4978833;28;20435;-61
2021/07/29 04:29:26;;;;;;;8.90;5.10;;;14.40;99.90;;;;;;4984211;28;20440;-60
2021/07/29 04:31:53;;;;;;;12.17;6.10;;;14.40;99.90;;;;;;4980837;28;20482;-59
2021/07/29 04:34:19;;;;;;;8.40;5.53;;;14.40;99.90;;;;;;4978908;28;20436;-61
2021/07/29 04:36:46;;;;;;;9.40;6.33;;;14.40;99.90;;;;;;4995445;28;20458;-61
2021/07/29 04:39:12;;;;;;;10.43;6.00;;;14.40;99.90;;;;;;4988748;28;20441;-61
2021/07/29 04:41:39;;;;;;;15.93;5.93;;;14.40;99.90;;;;;;4983354;28;20460;-60
2021/07/29 04:44:07;;;;;;;7.10;5.70;;;14.30;99.90;;;;;;4979499;28;20547;-61
2021/07/29 04:46:34;;;;;;;10.17;6.00;;;14.40;99.90;;;;;;4980515;28;20515;-60
2021/07/29 04:49:00;;;;;;;6.33;5.30;;;14.40;99.90;;;;;;4984667;28;20960;-60
2021/07/29 04:51:25;;;;;;;7.90;5.70;;;14.40;99.90;;;;;;4984339;28;20456;-61
2021/07/29 04:53:51;;;;;;;7.83;6.10;;;14.50;99.90;;;;;;4985062;28;20185;-60
2021/07/29 04:56:17;;;;;;;10.67;5.53;;;14.50;99.90;;;;;;4993223;28;20207;-60
2021/07/29 04:58:42;;;;;;;10.90;5.30;;;14.50;99.90;;;;;;4987547;28;20181;-60
2021/07/29 05:01:09;;;;;;;8.53;5.97;;;14.60;99.90;;;;;;4998960;28;20181;-61
2021/07/29 05:03:35;;;;;;;9.87;6.63;;;14.60;99.90;;;;;;4992565;28;20188;-60
2021/07/29 05:06:01;;;;;;;9.43;6.30;;;14.60;99.90;;;;;;5006026;28;20464;-61
2021/07/29 05:08:27;;;;;;;12.90;6.67;;;14.60;99.90;;;;;;4992535;28;20661;-60
2021/07/29 05:10:52;;;;;;;11.43;6.47;;;14.70;99.90;;;;;;5006260;28;20173;-60
2021/07/29 05:13:18;;;;;;;12.33;5.83;;;14.70;99.90;;;;;;4992404;28;20193;-61
2021/07/29 05:15:43;;;;;;;11.10;6.20;;;14.80;99.90;;;;;;4979235;28;20248;-60
2021/07/29 05:18:09;;;;;;;12.53;6.77;;;14.80;99.90;;;;;;4991021;28;20192;-61
2021/07/29 05:20:35;;;;;;;13.27;6.20;;;14.80;99.90;;;;;;4998653;28;20651;-60
2021/07/29 05:23:00;;;;;;;9.67;6.27;;;14.90;99.90;;;;;;5005563;28;20213;-60
2021/07/29 05:25:26;;;;;;;14.13;6.47;;;14.90;99.90;;;;;;5006842;28;20213;-60
2021/07/29 05:27:52;;;;;;;15.90;7.10;;;14.90;99.90;;;;;;4992695;28;20192;-61
2021/07/29 05:30:19;;;;;;;15.63;9.30;;;14.90;99.90;;;;;;4992106;28;20650;-61
2021/07/29 05:32:45;;;;;;;13.03;8.13;;;14.90;99.90;;;;;;4987043;28;20476;-59
2021/07/29 05:35:11;;;;;;;16.57;8.67;;;14.90;99.90;;;;;;4990350;28;20424;-61
2021/07/29 05:37:37;;;;;;;14.77;7.30;;;15.00;99.90;;;;;;4991775;28;20177;-60
2021/07/29 05:40:05;;;;;;;12.30;7.67;;;15.00;99.90;;;;;;4992543;28;20455;-61
2021/07/29 05:42:32;;;;;;;11.00;6.90;;;15.00;99.90;;;;;;4982595;28;20830;-60
2021/07/29 05:44:57;;;;;;;17.13;8.50;;;15.10;99.90;;;;;;4975600;28;20526;-61
2021/07/29 05:47:23;;;;;;;11.53;8.30;;;15.10;99.90;;;;;;4997210;28;21038;-60
2021/07/29 05:49:49;;;;;;;13.27;9.10;;;15.20;99.90;;;;;;4998518;28;20272;-60
2021/07/29 05:52:14;;;;;;;20.70;9.13;;;15.20;99.90;;;;;;4979150;28;20698;-61
2021/07/29 05:54:40;;;;;;;13.33;7.87;;;15.30;99.90;;;;;;4983282;28;20181;-61
2021/07/29 05:57:06;;;;;;;13.07;8.10;;;15.30;99.90;;;;;;4990836;28;20631;-60
2021/07/29 05:59:31;;;;;;;18.23;8.20;;;15.40;99.90;;;;;;4987951;28;20182;-60
2021/07/29 06:01:57;;;;;;;14.70;8.87;;;15.40;99.90;;;;;;4973273;28;20544;-61
2021/07/29 06:04:22;;;;;;;16.13;9.03;;;15.40;99.90;;;;;;4985026;28;20193;-61
2021/07/29 06:06:48;;;;;;;17.60;9.77;;;15.50;99.90;;;;;;4999577;28;20594;-61
2021/07/29 06:09:14;;;;;;;15.33;9.23;;;15.60;99.90;;;;;;4986213;28;20216;-60
2021/07/29 06:11:39;;;;;;;18.73;11.50;;;15.60;99.90;;;;;;4985187;28;20201;-60
2021/07/29 06:14:05;;;;;;;17.93;8.93;;;15.70;99.90;;;;;;4989199;28;20539;-60
2021/07/29 06:16:31;;;;;;;18.00;10.80;;;15.70;99.90;;;;;;5003702;28;20235;-61
2021/07/29 06:19:08;;;;;;;22.60;9.00;;;15.80;99.90;;;;;;4985210;28;20237;-61
2021/07/29 06:21:34;;;;;;;16.93;9.27;;;15.80;99.90;;;;;;4989865;28;20575;-60
2021/07/29 06:24:00;;;;;;;15.10;9.30;;;15.90;99.90;;;;;;4984561;28;20436;-61
2021/07/29 06:26:26;;;;;;;15.57;9.20;;;15.90;99.90;;;;;;4987425;28;20531;-60
2021/07/29 06:28:51;;;;;;;17.03;10.10;;;16.00;99.90;;;;;;4988659;28;20507;-60
2021/07/29 06:31:17;;;;;;;22.80;8.70;;;16.00;99.90;;;;;;4988206;28;20513;-61
2021/07/29 06:33:43;;;;;;;20.27;8.57;;;16.10;99.90;;;;;;4985491;28;20217;-60
2021/07/29 06:36:08;;;;;;;15.80;8.90;;;16.20;99.90;;;;;;4989859;28;20181;-60
2021/07/29 06:38:34;;;;;;;14.27;8.30;;;16.20;99.90;;;;;;4986749;28;20184;-61
2021/07/29 06:41:04;;;;;;;19.43;8.83;;;16.30;99.90;;;;;;4989115;28;20181;-60
2021/07/29 06:43:29;;;;;;;13.70;9.00;;;16.30;99.90;;;;;;4985877;28;20256;-60
2021/07/29 06:45:55;;;;;;;15.30;8.77;;;16.40;99.90;;;;;;4989348;28;20555;-60
2021/07/29 06:48:20;;;;;;;16.07;9.20;;;16.40;99.90;;;;;;4989641;28;20627;-61
2021/07/29 06:50:46;;;;;;;17.10;8.90;;;16.50;99.90;;;;;;4983567;28;20182;-61
2021/07/29 06:53:12;;;;;;;18.03;8.70;;;16.60;99.90;;;;;;4988088;28;20202;-61
2021/07/29 06:55:37;;;;;;;12.40;8.60;;;16.70;99.90;;;;;;4998527;28;20465;-60
2021/07/29 06:58:03;;;;;;;16.63;8.57;;;16.70;99.90;;;;;;4989826;28;20207;-61
2021/07/29 07:00:29;;;;;;;17.10;8.10;;;16.80;99.90;;;;;;4985175;28;20181;-60
2021/07/29 07:02:54;;;;;;;13.20;9.47;;;16.90;99.90;;;;;;4987797;28;20646;-61
2021/07/29 07:05:20;;;;;;;10.90;7.83;;;17.00;99.90;;;;;;5002214;28;20200;-60
2021/07/29 07:07:46;;;;;;;18.60;7.30;;;17.00;99.90;;;;;;4987619;28;20266;-61
2021/07/29 07:10:12;;;;;;;15.10;7.87;;;17.10;99.90;;;;;;4999829;28;20223;-61
2021/07/29 07:12:37;;;;;;;11.97;7.23;;;17.20;99.90;;;;;;4993974;28;20240;-61
2021/07/29 07:15:04;;;;;;;16.03;8.80;;;17.20;99.90;;;;;;4989709;28;20178;-60
2021/07/29 07:17:29;;;;;;;10.33;7.40;;;17.30;99.90;;;;;;4981868;28;20235;-60
2021/07/29 07:20:00;;;;;;;13.00;7.00;;;17.40;99.90;;;;;;4986984;28;20678;-61
2021/07/29 07:22:26;;;;;;;10.13;5.00;;;17.50;99.90;;;;;;4992994;28;20244;-62
2021/07/29 07:24:52;;;;;;;7.17;4.40;;;17.50;99.90;;;;;;4993535;28;20484;-61
2021/07/29 07:27:18;;;;;;;5.00;4.10;;;17.70;99.90;;;;;;4990417;28;20479;-61
2021/07/29 07:29:43;;;;;;;6.17;4.17;;;17.80;99.90;;;;;;4988885;28;20173;-61
2021/07/29 07:32:09;;;;;;;8.27;4.90;;;17.90;99.90;;;;;;4988444;28;20213;-61
2021/07/29 07:34:35;;;;;;;5.87;4.50;;;18.10;99.90;;;;;;4983052;28;20594;-60
2021/07/29 07:37:00;;;;;;;6.10;4.20;;;18.30;99.90;;;;;;4996762;28;20185;-60
2021/07/29 07:39:26;;;;;;;5.80;3.93;;;18.40;99.90;;;;;;4989304;28;20193;-60
2021/07/29 07:41:52;;;;;;;5.53;4.33;;;18.50;99.90;;;;;;4987891;28;20300;-61
2021/07/29 07:44:18;;;;;;;6.10;4.00;;;18.60;99.90;;;;;;4991571;28;20550;-60
2021/07/29 07:46:44;;;;;;;7.20;4.13;;;18.80;99.90;;;;;;4988459;28;20209;-60
2021/07/29 07:49:10;;;;;;;5.47;4.20;;;18.90;99.90;;;;;;4987755;28;20188;-61
2021/07/29 07:51:37;;;;;;;8.30;3.80;;;19.00;99.90;;;;;;4992470;28;20752;-61
2021/07/29 07:54:03;;;;;;;4.20;3.80;;;19.10;99.70;;;;;;4986741;28;20443;-58
2021/07/29 07:56:28;;;;;;;5.73;3.87;;;19.20;99.00;;;;;;4997769;28;20454;-61
2021/07/29 07:58:54;;;;;;;6.80;3.87;;;19.30;96.90;;;;;;5001371;28;20227;-60
2021/07/29 08:01:20;;;;;;;4.37;3.50;;;19.40;97.70;;;;;;4994566;28;20191;-62
2021/07/29 08:03:47;;;;;;;5.03;3.87;;;19.50;97.30;;;;;;4987907;28;20759;-60
2021/07/29 08:06:12;;;;;;;8.87;4.70;;;19.60;97.60;;;;;;4989697;28;20431;-61
2021/07/29 08:08:39;;;;;;;5.63;4.03;;;19.60;96.70;;;;;;4988116;28;20513;-61
2021/07/29 08:11:05;;;;;;;9.13;3.60;;;19.70;95.10;;;;;;4995730;28;20178;-61
2021/07/29 08:13:30;;;;;;;5.47;3.97;;;19.80;95.80;;;;;;4989573;28;20450;-61
2021/07/29 08:15:56;;;;;;;7.77;3.70;;;19.90;90.90;;;;;;4967677;28;20259;-57
2021/07/29 08:18:22;;;;;;;6.27;3.80;;;19.90;91.00;;;;;;4982022;28;20315;-56
2021/07/29 08:20:48;;;;;;;7.40;3.93;;;20.00;92.60;;;;;;4977779;28;20428;-57
2021/07/29 08:23:18;;;;;;;5.53;3.80;;;20.10;92.80;;;;;;4978377;28;20209;-61
2021/07/29 08:25:44;;;;;;;8.43;4.20;;;20.20;92.10;;;;;;4981556;28;20212;-60
2021/07/29 08:28:10;;;;;;;4.90;3.33;;;20.20;90.60;;;;;;4991807;28;20451;-60
2021/07/29 08:30:36;;;;;;;4.80;4.13;;;20.30;88.20;;;;;;4990484;28;20573;-61
2021/07/29 08:33:11;;;;;;;7.07;3.90;;;20.30;89.30;;;;;;4986766;28;20490;-61
2021/07/29 08:35:37;;;;;;;7.30;3.33;;;20.40;90.80;;;;;;4978871;28;20212;-59
2021/07/29 08:38:04;;;;;;;6.53;3.60;;;20.50;84.90;;;;;;4976699;28;20527;-59
2021/07/29 08:40:30;;;;;;;9.90;3.90;;;20.50;84.50;;;;;;4978729;28;20445;-59
2021/07/29 08:42:56;;;;;;;6.07;3.67;;;20.60;81.40;;;;;;4975946;28;20541;-59
2021/07/29 08:45:22;;;;;;;4.67;3.60;;;20.70;85.40;;;;;;4983056;28;20494;-59
2021/07/29 08:47:52;;;;;;;5.00;3.93;;;20.80;85.10;;;;;;4978759;28;20432;-60
2021/07/29 08:50:18;;;;;;;8.50;3.97;;;20.90;78.90;;;;;;4990887;28;20268;-59
2021/07/29 08:52:43;;;;;;;5.80;3.53;;;20.90;79.30;;;;;;4981569;28;20558;-59
2021/07/29 08:55:09;;;;;;;4.20;3.87;;;21.00;74.80;;;;;;4978067;28;20188;-60
2021/07/29 08:57:38;;;;;;;4.20;3.67;;;21.10;77.40;;;;;;4981187;28;20289;-61
2021/07/29 09:00:08;;;;;;;4.20;3.67;;;21.20;73.50;;;;;;4978842;28;20185;-60
2021/07/29 09:02:34;;;;;;;11.10;4.17;;;21.30;79.60;;;;;;4977652;28;20562;-60
2021/07/29 09:05:15;;;;;;;7.30;4.07;;;21.40;72.60;;;;;;4975854;28;20555;-60
2021/07/29 09:07:42;;;;;;;7.53;4.13;;;21.40;75.30;;;;;;4983993;28;20180;-59
2021/07/29 09:10:27;;;;;;;5.67;4.00;;;21.40;73.80;;;;;;4984547;28;20440;-60
2021/07/29 09:13:10;;;;;;;7.47;3.97;;;21.50;74.50;;;;;;4976644;28;20822;-59
2021/07/29 09:15:36;;;;;;;5.13;4.27;;;21.60;72.50;;;;;;4975079;28;21321;-60
2021/07/29 09:18:03;;;;;;;4.90;3.70;;;21.50;72.10;;;;;;4978208;28;20905;-61
2021/07/29 09:20:29;;;;;;;7.87;4.10;;;21.40;65.90;;;;;;4977882;28;22079;-60
2021/07/29 09:22:55;;;;;;;5.37;3.70;;;21.20;67.70;;;;;;4976421;28;20473;-60
2021/07/29 09:25:26;;;;;;;5.77;3.70;;;21.30;67.40;;;;;;4974143;28;20201;-59
2021/07/29 09:27:52;;;;;;;6.80;3.80;;;21.30;67.10;;;;;;4977644;28;20260;-59
2021/07/29 09:30:25;;;;;;;5.80;3.87;;;21.20;63.70;;;;;;4978711;28;20518;-59
2021/07/29 09:33:13;;;;;;;12.50;4.50;;;21.10;64.00;;;;;;4976374;28;20495;-61
2021/07/29 09:35:53;;;;;;;6.30;3.77;;;21.10;66.00;;;;;;4981927;28;20487;-59
2021/07/29 09:38:24;;;;;;;8.10;4.40;;;21.10;64.30;;;;;;4983011;28;20987;-60
2021/07/29 09:40:54;;;;;;;10.63;4.00;;;21.10;64.40;;;;;;4983800;28;20531;-59
2021/07/29 09:43:31;;;;;;;5.10;4.33;;;21.30;64.70;;;;;;4994362;28;20467;-59
2021/07/29 09:46:18;;;;;;;5.23;4.43;;;21.60;61.20;;;;;;4980039;28;20840;-59
2021/07/29 09:48:45;;;;;;;4.63;4.10;;;21.70;61.50;;;;;;4990406;28;20822;-60
2021/07/29 09:51:11;;;;;;;8.93;4.83;;;21.70;62.00;;;;;;4990005;28;20817;-60
2021/07/29 09:53:38;;;;;;;5.90;3.73;;;21.80;62.50;;;;;;4981970;28;20921;-60
2021/07/29 09:56:11;;;;;;;5.80;4.30;;;21.90;63.80;;;;;;4987528;28;20455;-59
2021/07/29 09:58:37;;;;;;;5.23;3.80;;;21.90;64.90;;;;;;4978609;28;20472;-59
2021/07/29 10:01:03;;;;;;;5.53;3.60;;;22.00;62.60;;;;;;4975126;28;20462;-59
2021/07/29 10:03:30;;;;;;;6.27;3.80;;;22.00;64.00;;;;;;4973846;28;20470;-61
2021/07/29 10:06:01;;;;;;;5.70;4.53;;;22.10;64.20;;;;;;4974422;28;20467;-58
2021/07/29 10:08:31;;;;;;;9.43;4.40;;;22.20;64.20;;;;;;4966671;28;20444;-60
2021/07/29 10:11:00;;;;;;;5.90;4.17;;;22.40;60.30;;;;;;4973701;28;20956;-59
2021/07/29 10:13:33;;;;;;;6.00;4.00;;;22.40;59.80;;;;;;4971193;28;20467;-59
2021/07/29 10:15:59;;;;;;;6.73;3.73;;;22.30;59.90;;;;;;4975863;28;20476;-59
2021/07/29 10:18:24;;;;;;;4.67;4.20;;;22.10;58.50;;;;;;4980978;28;21915;-58
2021/07/29 10:21:20;;;;;;;5.10;4.37;;;21.90;60.30;;;;;;4958387;28;20193;-59
2021/07/29 10:23:53;;;;;;;6.53;4.47;;;21.70;60.70;;;;;;4976303;28;20659;-59
2021/07/29 10:26:20;;;;;;;12.67;4.53;;;21.70;60.50;;;;;;4973020;28;20932;-59
2021/07/29 10:28:46;;;;;;;7.70;4.43;;;21.50;60.40;;;;;;4969065;28;20451;-59
2021/07/29 10:31:14;;;;;;;6.60;4.80;;;21.50;60.30;;;;;;4973356;28;20474;-59
2021/07/29 10:33:40;;;;;;;6.23;4.57;;;21.50;59.80;;;;;;4970387;28;20953;-58
2021/07/29 10:36:08;;;;;;;5.73;4.80;;;21.50;59.70;;;;;;4972309;28;20462;-61
2021/07/29 10:38:39;;;;;;;5.73;4.43;;;21.50;60.40;;;;;;4972494;28;20472;-58
2021/07/29 10:41:34;;;;;;;7.37;4.00;;;21.60;59.40;;;;;;4972887;28;21012;-58
2021/07/29 10:44:03;;;;;;;7.87;4.40;;;21.60;60.10;;;;;;4976179;28;20448;-58
2021/07/29 10:47:02;;;;;;;7.83;4.37;;;21.70;62.10;;;;;;4976656;28;20444;-57
2021/07/29 10:49:46;;;;;;;7.50;4.50;;;22.10;63.20;;;;;;4974240;28;20444;-58
2021/07/29 10:52:13;;;;;;;9.00;4.87;;;22.60;58.70;;;;;;4980883;28;20464;-60
2021/07/29 10:54:41;;;;;;;15.30;11.43;;;22.90;58.70;;;;;;4977321;28;20483;-58
2021/07/29 10:57:11;;;;;;;6.17;4.77;;;23.00;57.10;;;;;;4981232;28;20436;-58
2021/07/29 10:59:37;;;;;;;4.87;4.00;;;23.00;57.50;;;;;;4979944;28;20482;-58
2021/07/29 11:02:07;;;;;;;7.87;4.20;;;22.90;56.40;;;;;;4977886;28;20987;-59
2021/07/29 11:04:53;;;;;;;5.77;4.00;;;23.00;57.60;;;;;;4977456;28;20836;-59
2021/07/29 11:07:19;;;;;;;4.33;3.70;;;23.10;56.50;;;;;;4973986;28;20926;-58
2021/07/29 11:09:45;;;;;;;5.07;4.40;;;23.00;55.20;;;;;;4977360;28;20952;-59
2021/07/29 11:12:16;;;;;;;4.63;4.07;;;23.00;54.30;;;;;;4976004;28;20460;-59
2021/07/29 11:14:42;;;;;;;6.00;4.13;;;22.90;55.40;;;;;;4971117;28;20554;-57
2021/07/29 11:17:09;;;;;;;4.53;4.13;;;23.00;55.80;;;;;;4971868;28;20472;-58
2021/07/29 11:19:45;;;;;;;5.60;4.30;;;23.00;55.80;;;;;;4970642;28;20530;-58
2021/07/29 11:22:12;;;;;;;4.80;3.90;;;23.20;58.10;;;;;;4977709;28;21136;-58
2021/07/29 11:24:38;;;;;;;6.60;4.57;;;23.40;56.10;;;;;;4974915;28;20468;-59
2021/07/29 11:27:07;;;;;;;9.43;4.10;;;23.30;55.00;;;;;;4975024;28;21012;-57
2021/07/29 11:29:33;;;;;;;5.27;4.37;;;23.30;54.20;;;;;;4974712;28;20455;-57
2021/07/29 11:31:59;;;;;;;5.80;4.13;;;23.50;56.00;;;;;;4982570;28;20467;-59
2021/07/29 11:34:32;;;;;;;4.70;4.13;;;23.70;55.80;;;;;;4978438;28;20449;-58
2021/07/29 11:36:58;;;;;;;5.47;4.00;;;23.80;53.60;;;;;;4971965;28;20457;-59
2021/07/29 11:39:25;;;;;;;4.97;3.97;;;23.70;54.10;;;;;;4977581;28;20518;-59
2021/07/29 11:41:57;;;;;;;7.20;4.43;;;23.80;53.80;;;;;;4975696;28;21233;-58
2021/07/29 11:44:52;;;;;;;5.50;4.60;;;23.70;52.10;;;;;;4976430;28;20463;-58
2021/07/29 11:47:18;;;;;;;5.03;4.53;;;23.70;53.10;;;;;;4978432;28;20433;-58
2021/07/29 11:49:48;;;;;;;6.67;4.63;;;23.50;52.80;;;;;;4980007;28;20495;-59
2021/07/29 11:52:19;;;;;;;8.50;4.40;;;23.60;53.10;;;;;;4973485;28;20263;-58
2021/07/29 11:54:45;;;;;;;5.63;4.30;;;23.80;55.40;;;;;;4979510;28;20444;-58
2021/07/29 11:57:12;;;;;;;4.90;4.10;;;24.10;51.60;;;;;;4978132;28;20498;-59
2021/07/29 11:59:46;;;;;;;4.23;3.80;;;24.30;52.30;;;;;;4983470;28;20590;-56
2021/07/29 12:02:19;;;;;;;4.60;3.60;;;24.40;52.10;;;;;;4985747;28;20468;-59
2021/07/29 12:04:45;;;;;;;6.10;3.67;;;24.50;52.30;;;;;;4987283;28;20538;-58
2021/07/29 12:07:13;;;;;;;8.30;4.83;;;24.70;51.40;;;;;;4988389;28;20947;-58
2021/07/29 12:09:44;;;;;;;5.20;4.27;;;24.70;50.30;;;;;;4994453;28;20426;-58
2021/07/29 12:12:15;;;;;;;4.73;3.90;;;24.90;50.10;;;;;;4984503;28;20458;-58
2021/07/29 12:14:44;;;;;;;5.07;4.17;;;25.00;50.40;;;;;;4988346;28;20439;-58
2021/07/29 12:17:26;;;;;;;6.90;4.30;;;25.20;52.20;;;;;;4985455;28;20471;-58
2021/07/29 12:19:56;;;;;;;5.33;4.07;;;25.40;52.60;;;;;;4987682;28;20899;-57
2021/07/29 12:22:31;;;;;;;4.90;4.27;;;25.60;50.70;;;;;;4981671;28;20452;-59
2021/07/29 12:25:00;;;;;;;6.37;4.50;;;25.60;50.30;;;;;;4989666;28;20451;-59
2021/07/29 12:27:26;;;;;;;7.37;4.77;;;25.70;49.10;;;;;;4993824;28;20511;-59
2021/07/29 12:29:55;;;;;;;5.53;4.10;;;25.90;51.50;;;;;;4977649;28;20440;-59
2021/07/29 12:32:24;;;;;;;5.63;3.80;;;26.10;49.80;;;;;;4974873;28;20519;-58
2021/07/29 12:34:52;;;;;;;6.63;4.90;;;26.30;48.90;;;;;;4976443;28;20510;-59
2021/07/29 12:37:35;;;;;;;4.23;3.80;;;26.30;47.10;;;;;;4974833;28;20479;-61
2021/07/29 12:40:02;;;;;;;4.97;4.00;;;26.10;47.70;;;;;;4975686;28;20451;-59
2021/07/29 12:42:30;;;;;;;5.50;4.20;;;26.00;47.10;;;;;;4977816;28;20459;-60
2021/07/29 12:45:07;;;;;;;6.10;4.37;;;25.80;47.90;;;;;;4975253;28;20543;-59
2021/07/29 12:47:33;;;;;;;5.10;4.47;;;25.90;49.00;;;;;;4976936;28;20991;-58